Waldport, OR

6:17 AM PST on December 25, 2014 (GMT -0800)
Mr.Wizard | Change Station
CLOSE
Current Station
Personal Weather Station
Location: Waldport, OR
Elevation: 56 ft
Nearby Weather Stations

Elev 56 ft 44.42 °N, 124.08 °W | Updated 0 second ago

Overcast
Overcast
48.6 °F
Feels Like 49 °F
N
0.0
Wind Variable Wind from North
Gusts 17.0 mph

Today
High -- | Low -- °F
--% Chance of Precip.
Yesterday
High -- | Low -- °F
Precip. -- in
7:51 AM 4:41 PM
Waxing Crescent, 16% visible
Pressure 30.22 in
Visibility 10.0 miles
Clouds Few 4200 ft
Scattered Clouds 5000 ft
Mostly Cloudy 6500 ft
Windchill 49 °F
Dew Point 26 °F
Humidity 42%
Rainfall 0.09 in
Snow Depth Not available.
UV 14.5 out of 12
Pollen .50 out of 12
Air Quality Not available.
Flu Activity Not available.
METAR KCVO 251355Z AUTO 34003KT 10SM FEW042 SCT050 BKN065 06/04 A3022 RMK AO1

More Conditions Fewer Conditions

Pressure 30.22 in
Visibility 10.0 miles
Clouds Few 4200 ft
Scattered Clouds 5000 ft
Mostly Cloudy 6500 ft
Windchill 49 °F
Dew Point 26 °F
Humidity 42%
Rainfall 0.09 in
Snow Depth Not available.
UV 14.5 out of 12
Pollen .50 out of 12
Air Quality Not available.
Flu Activity Not available.
METAR KCVO 251355Z AUTO 34003KT 10SM FEW042 SCT050 BKN065 06/04 A3022 RMK AO1

More Conditions Fewer Conditions

10-Day Weather Forecast

Almanac

Astronomy

Dec. 25, 2014 Rise Set
Actual Time
Civil Twilight
Nautical Twilight
Astronomical Twilight
Moon
Length of Visible Light
Length of Day
Tomorrow will be .
, % of the Moon is Illuminated

Today's Extremes

State Highs State Lows

Community

WunderPhotos

Upload Photos

1,780,277 photos uploaded!

WunderBlogs® & News

Nearby

Air Quality

  Air Quality AQ Index Pollutant
Not available.

Snow Depth

Station Depth Elevation

Earthquake Activity

City Distance Mag. Time & Date
Minimum magnitude displayed is 2.5.

Coastal Water Temperatures

Place Temperature

Nearby Weather Stations